KJOT

Details ICAO KJOT (JOT)
Name JOLIET RGNL
Region United States
Timezone America/Chicago (UTC-5.0)
Plans Departing 15
Arriving 7
Stats Elevation 581 ft / 177 m (AMSL)
Location 41.517784° -88.175517°
Runways 2
Magnetic Variation 3.477° W
Sunrise 2018-05-22 10:28:48 UTC / 2018-05-22 05:28:48 Local
Sunset 2018-05-23 01:12:50 UTC / 2018-05-22 20:12:50 Local
Advertisement - Login to hide

Runways

ID Width Length Bearing (true) Bearing (mag) Surface Threshold Offset Overrun Length
04 140 ft / 43 m 3,227 ft / 984 m 44.10° 47.58° Grass 0 ft / 0 m 0 ft / 0 m
12 100 ft / 30 m 2,935 ft / 895 m 126.72° 130.20° Asphalt 220 ft / 67 m 0 ft / 0 m
22 140 ft / 43 m 3,227 ft / 984 m 224.11° 227.59° Grass 0 ft / 0 m 0 ft / 0 m
30 100 ft / 30 m 2,935 ft / 895 m 306.73° 310.21° Asphalt 80 ft / 24 m 0 ft / 0 m

Map

Weather


0- 5 10 15 20 25 30 35+ Temperature / ° C

Clouds and Precipitation
Forecast for 2018-05-22 18:00 UTC. Updated 2 hours ago

Ground ~20,000 ft ~40,000 ft Winds

METAR

KJOT 221935Z AUTO 32003KT 10SM SCT030 SCT037 OVC048 22/16 A3006 RMK AO2 T02200157

TAF

Not found

Frequencies

Recorded 119.97 MHz AWOS 3
Approach 119.35 MHz CHICAGO APP/DEP
Unicom 122.70 MHz CTAF/UNICOM
Warning: Do not use this data for real-world aviation or navigation. No guarantee of current accuracy is given.